createdAt,value
2022-08-19T00:01:52.984Z,21.01
2022-08-19T00:08:33.865Z,20.96
2022-08-19T00:11:00.913Z,20.93
2022-08-19T00:13:29.570Z,20.91
2022-08-19T00:15:57.038Z,20.93
2022-08-19T00:18:24.070Z,20.90
2022-08-19T00:20:51.152Z,20.92
2022-08-19T00:23:18.207Z,20.90
2022-08-19T00:25:45.429Z,20.83
2022-08-19T00:28:15.913Z,20.80
2022-08-19T00:30:42.959Z,20.79
2022-08-19T00:33:09.996Z,20.74
2022-08-19T00:35:39.439Z,20.70
2022-08-19T00:38:07.384Z,20.65
2022-08-19T00:40:34.451Z,20.64
2022-08-19T00:43:01.491Z,20.60
2022-08-19T00:45:33.181Z,20.63
2022-08-19T00:48:06.867Z,20.63
2022-08-19T00:50:52.089Z,20.52
2022-08-19T00:53:21.477Z,20.50
2022-08-19T00:55:51.325Z,20.51
2022-08-19T00:58:19.902Z,20.50
2022-08-19T01:00:47.505Z,20.48
2022-08-19T01:03:16.754Z,20.44
2022-08-19T01:05:48.353Z,20.42
2022-08-19T01:08:16.374Z,20.46
2022-08-19T01:10:48.367Z,20.45
2022-08-19T01:13:16.102Z,20.41
2022-08-19T01:15:45.874Z,20.40
2022-08-19T01:18:14.152Z,20.38
2022-08-19T01:20:42.278Z,20.39
2022-08-19T01:23:09.313Z,20.34
2022-08-19T01:25:47.292Z,20.26
2022-08-19T01:28:33.798Z,20.22
2022-08-19T01:31:01.559Z,20.21
2022-08-19T01:33:35.212Z,20.23
2022-08-19T01:36:10.073Z,20.28
2022-08-19T01:38:44.183Z,20.31
2022-08-19T01:41:12.524Z,20.29
2022-08-19T01:44:16.987Z,20.29
2022-08-19T01:46:26.817Z,20.29
2022-08-19T01:48:53.891Z,20.31
2022-08-19T01:51:20.982Z,20.32
2022-08-19T01:53:49.362Z,20.32
2022-08-19T01:56:16.650Z,20.29
2022-08-19T01:58:48.602Z,20.27
2022-08-19T02:01:17.178Z,20.29
2022-08-19T02:03:44.321Z,20.26
2022-08-19T02:06:11.402Z,20.28
2022-08-19T02:08:38.906Z,20.31
2022-08-19T02:11:06.567Z,20.31
2022-08-19T02:13:34.552Z,20.30
2022-08-19T02:16:04.306Z,20.27
2022-08-19T02:18:31.605Z,20.26
2022-08-19T02:20:58.688Z,20.26
2022-08-19T02:23:25.799Z,20.21
2022-08-19T02:25:52.962Z,20.23
2022-08-19T02:28:19.995Z,20.25
2022-08-19T02:30:47.884Z,20.26
2022-08-19T02:33:14.979Z,20.26
2022-08-19T02:35:43.210Z,20.24
2022-08-19T02:38:28.640Z,20.23
2022-08-19T02:41:03.682Z,20.21
2022-08-19T02:43:33.726Z,20.19
2022-08-19T02:46:03.382Z,20.21
2022-08-19T02:48:31.053Z,20.20
2022-08-19T02:50:58.115Z,20.15
2022-08-19T02:53:26.815Z,20.13
2022-08-19T03:43:03.112Z,19.63
2022-08-19T03:45:30.389Z,19.68
2022-08-19T03:47:57.439Z,19.63
2022-08-19T03:50:25.302Z,19.55
2022-08-19T03:52:53.024Z,19.57
2022-08-19T03:55:20.432Z,19.56
2022-08-19T03:57:49.589Z,19.60
2022-08-19T04:00:17.497Z,19.60
2022-08-19T04:02:58.343Z,19.61
2022-08-19T04:05:30.253Z,19.64
2022-08-19T04:07:59.864Z,19.62
2022-08-19T04:10:29.137Z,19.61
2022-08-19T04:12:56.294Z,19.62
2022-08-19T04:15:23.369Z,19.63
2022-08-19T04:17:50.406Z,19.60
2022-08-19T04:20:18.003Z,19.58
2022-08-19T04:22:45.119Z,19.60
2022-08-19T04:25:12.212Z,19.63
2022-08-19T04:27:39.252Z,19.64
2022-08-19T04:30:06.645Z,19.62
2022-08-19T04:32:33.688Z,19.64
2022-08-19T04:35:02.717Z,19.66
2022-08-19T04:37:44.890Z,19.64
2022-08-19T04:40:31.020Z,19.62
2022-08-19T04:42:58.093Z,19.63
2022-08-19T04:45:25.273Z,19.60
2022-08-19T04:47:58.457Z,19.58
2022-08-19T04:50:27.101Z,19.55
2022-08-19T04:52:54.435Z,19.56
2022-08-19T04:55:21.755Z,19.56
2022-08-19T04:57:48.880Z,19.56
2022-08-19T05:00:15.970Z,19.56
2022-08-19T05:02:43.294Z,19.56
2022-08-19T05:05:10.556Z,19.58
2022-08-19T05:07:37.706Z,19.58
2022-08-19T05:10:06.281Z,19.62
2022-08-19T05:12:33.778Z,19.64
2022-08-19T05:15:01.733Z,19.64
2022-08-19T05:17:31.276Z,19.66
2022-08-19T05:20:20.779Z,19.65
2022-08-19T05:22:48.488Z,19.67
2022-08-19T05:25:19.338Z,19.66
2022-08-19T05:27:46.420Z,19.69
2022-08-19T05:30:14.016Z,19.68
2022-08-19T05:32:41.439Z,19.64
2022-08-19T05:35:09.177Z,19.62
2022-08-19T05:37:36.256Z,19.59
2022-08-19T05:40:04.946Z,19.57
2022-08-19T05:42:32.574Z,19.54
2022-08-19T05:44:59.608Z,19.53
2022-08-19T05:47:26.847Z,19.55
2022-08-19T05:49:53.901Z,19.59
2022-08-19T05:52:26.046Z,19.56
2022-08-19T05:54:56.202Z,19.52
2022-08-19T05:57:24.072Z,19.50
2022-08-19T05:59:58.421Z,19.48
2022-08-19T06:02:27.005Z,19.48
2022-08-19T06:04:54.099Z,19.45
2022-08-19T06:07:21.219Z,19.44
2022-08-19T06:09:54.433Z,19.45
2022-08-19T06:12:32.345Z,19.43
2022-08-19T06:15:01.649Z,19.42
2022-08-19T06:17:31.267Z,19.37
2022-08-19T06:19:59.590Z,19.38
2022-08-19T06:22:27.472Z,19.38
2022-08-19T06:24:55.095Z,19.38
2022-08-19T06:27:22.595Z,19.38
2022-08-19T06:29:49.877Z,19.43
2022-08-19T06:32:17.833Z,19.48
2022-08-19T06:34:45.016Z,19.52
2022-08-19T06:37:12.153Z,19.44
2022-08-19T06:39:40.475Z,19.42
2022-08-19T06:42:09.720Z,19.45
2022-08-19T06:44:43.021Z,19.45
2022-08-19T06:47:14.937Z,19.44
2022-08-19T06:49:51.263Z,19.41
2022-08-19T06:52:18.467Z,19.38
2022-08-19T06:54:53.700Z,19.38
2022-08-19T06:57:26.401Z,19.38
2022-08-19T06:59:53.878Z,19.39
2022-08-19T07:02:21.677Z,19.42
2022-08-19T07:04:52.617Z,19.47
2022-08-19T07:07:24.498Z,19.47
2022-08-19T07:09:58.287Z,19.50
2022-08-19T07:12:33.914Z,19.54
2022-08-19T07:15:06.312Z,19.54
2022-08-19T07:17:35.791Z,19.56
2022-08-19T07:20:05.505Z,19.56
2022-08-19T07:22:37.184Z,19.56
2022-08-19T07:25:09.549Z,19.55
2022-08-19T07:27:36.667Z,19.59
2022-08-19T07:30:04.222Z,19.59
2022-08-19T07:32:32.488Z,19.57
2022-08-19T07:35:01.516Z,19.60
2022-08-19T07:37:33.111Z,19.61
2022-08-19T07:40:01.280Z,19.58
2022-08-19T07:42:30.723Z,19.59
2022-08-19T07:44:59.378Z,19.62
2022-08-19T07:47:49.931Z,19.60
2022-08-19T07:50:21.331Z,19.67
2022-08-19T07:52:50.415Z,19.67
2022-08-19T07:55:41.892Z,19.67
2022-08-19T07:58:09.859Z,19.62
2022-08-19T08:00:37.008Z,19.63
2022-08-19T08:03:04.314Z,19.67
2022-08-19T08:05:50.180Z,19.66
2022-08-19T08:08:32.523Z,19.66
2022-08-19T08:11:00.741Z,19.68
2022-08-19T08:13:28.282Z,19.71
2022-08-19T08:15:56.635Z,19.74
2022-08-19T08:18:27.405Z,19.77
2022-08-19T08:20:56.107Z,19.78
2022-08-19T08:23:25.760Z,19.75
2022-08-19T08:25:55.619Z,19.75
2022-08-19T08:28:23.306Z,19.72
2022-08-19T08:30:51.311Z,19.72
2022-08-19T08:33:28.561Z,19.74
2022-08-19T08:36:08.059Z,19.78
2022-08-19T08:38:43.025Z,19.78
2022-08-19T08:41:20.636Z,19.82
2022-08-19T08:43:49.992Z,19.86
2022-08-19T08:46:31.133Z,19.87
2022-08-19T08:49:02.379Z,19.89
2022-08-19T08:51:35.068Z,19.91
2022-08-19T08:54:03.290Z,19.93
2022-08-19T08:59:00.919Z,20.00
2022-08-19T09:01:30.207Z,20.06
2022-08-19T09:04:02.854Z,20.16
2022-08-19T09:06:47.845Z,20.23
2022-08-19T09:09:23.768Z,20.35
2022-08-19T09:11:56.057Z,20.44
2022-08-19T09:14:49.806Z,20.56
2022-08-19T09:17:17.758Z,20.52
2022-08-19T09:19:55.283Z,20.49
2022-08-19T09:22:27.373Z,20.46
2022-08-19T09:24:55.097Z,20.44
2022-08-19T09:27:43.125Z,20.42
2022-08-19T09:30:13.585Z,20.47
2022-08-19T09:32:42.812Z,20.54
2022-08-19T09:35:10.500Z,20.53
2022-08-19T09:37:37.653Z,20.47
2022-08-19T09:40:05.453Z,20.33
2022-08-19T09:42:35.278Z,20.36
2022-08-19T09:45:05.209Z,20.37
2022-08-19T09:47:39.092Z,20.39
2022-08-19T09:50:09.402Z,20.40
2022-08-19T09:52:38.365Z,20.43
2022-08-19T09:55:08.126Z,20.45
2022-08-19T09:57:36.088Z,20.43
2022-08-19T10:00:04.868Z,20.44
2022-08-19T10:02:34.930Z,20.49
2022-08-19T10:05:23.161Z,20.51
2022-08-19T10:07:55.490Z,20.51
2022-08-19T10:10:25.004Z,20.42
2022-08-19T10:12:52.944Z,20.34
2022-08-19T10:15:28.984Z,20.26
2022-08-19T10:17:56.834Z,20.26
2022-08-19T10:20:26.137Z,20.20
2022-08-19T10:22:53.448Z,20.20
2022-08-19T10:25:22.431Z,20.12
2022-08-19T10:27:51.437Z,20.12
2022-08-19T10:30:20.193Z,20.08
2022-08-19T10:32:47.443Z,20.17
2022-08-19T10:35:16.201Z,20.26
2022-08-19T10:37:57.458Z,20.26
2022-08-19T10:40:24.920Z,20.25
2022-08-19T10:42:52.060Z,20.29
2022-08-19T10:45:19.276Z,20.32
2022-08-19T10:47:47.662Z,20.34
2022-08-19T10:50:33.475Z,20.32
2022-08-19T10:53:04.309Z,20.29
2022-08-19T10:55:55.439Z,20.32
2022-08-19T10:58:27.045Z,20.30
2022-08-19T11:00:57.780Z,20.29
2022-08-19T11:03:25.580Z,20.25
2022-08-19T11:06:02.877Z,20.16
2022-08-19T11:08:31.738Z,20.15
2022-08-19T11:11:01.966Z,20.10
2022-08-19T11:13:30.451Z,20.09
2022-08-19T11:16:06.780Z,20.07
2022-08-19T11:18:39.448Z,20.05
2022-08-19T11:21:07.842Z,20.06
2022-08-19T11:23:35.042Z,20.01
2022-08-19T11:26:02.711Z,19.96
2022-08-19T11:28:29.885Z,19.92
2022-08-19T11:30:56.943Z,19.89
2022-08-19T11:33:24.060Z,19.88
2022-08-19T11:35:51.202Z,19.93
2022-08-19T11:38:19.408Z,19.92
2022-08-19T11:40:46.548Z,19.93
2022-08-19T11:43:13.675Z,19.93
2022-08-19T11:45:40.831Z,19.91
2022-08-19T11:48:07.940Z,19.87
2022-08-19T11:50:35.103Z,19.86
2022-08-19T11:53:02.144Z,19.88
2022-08-19T11:55:29.406Z,19.87
2022-08-19T11:57:56.655Z,19.85
2022-08-19T12:00:23.729Z,19.81
2022-08-19T12:02:50.808Z,19.79
2022-08-19T12:05:18.468Z,19.81
2022-08-19T12:07:45.606Z,19.82
2022-08-19T12:10:12.809Z,19.89
2022-08-19T12:12:43.581Z,19.92
2022-08-19T12:15:12.059Z,19.93
2022-08-19T12:17:39.206Z,19.95
2022-08-19T12:20:09.984Z,19.95
2022-08-19T12:22:37.764Z,19.94
2022-08-19T12:25:05.801Z,19.97
2022-08-19T12:27:40.684Z,20.05
2022-08-19T12:30:10.284Z,20.07
2022-08-19T12:32:37.486Z,20.12
2022-08-19T12:35:05.200Z,20.17
2022-08-19T12:37:33.233Z,20.23
2022-08-19T12:40:00.523Z,20.28
2022-08-19T12:42:28.024Z,20.31
2022-08-19T12:44:55.851Z,20.30
2022-08-19T12:47:23.457Z,20.34
2022-08-19T12:49:54.412Z,20.35
2022-08-19T12:52:24.079Z,20.37
2022-08-19T12:54:54.491Z,20.45
2022-08-19T12:57:31.941Z,20.44
2022-08-19T13:00:00.912Z,20.47
2022-08-19T13:02:27.964Z,20.48
2022-08-19T13:04:55.124Z,20.47
2022-08-19T13:07:22.545Z,20.47
2022-08-19T13:09:52.030Z,20.45
2022-08-19T13:12:22.033Z,20.47
2022-08-19T13:14:52.863Z,20.43
2022-08-19T13:17:20.368Z,20.46
2022-08-19T13:19:47.549Z,20.46
2022-08-19T13:22:15.200Z,20.41
2022-08-19T13:24:46.884Z,20.43
2022-08-19T13:27:14.526Z,20.39
2022-08-19T13:30:00.992Z,20.37
2022-08-19T13:32:48.912Z,20.36
2022-08-19T13:35:17.104Z,20.38
2022-08-19T13:37:45.541Z,20.33
2022-08-19T13:40:16.997Z,20.33
2022-08-19T13:42:48.383Z,20.29
2022-08-19T13:45:17.506Z,20.32
2022-08-19T13:47:46.269Z,20.34
2022-08-19T13:50:14.392Z,20.32
2022-08-19T13:52:41.564Z,20.37
2022-08-19T13:55:10.242Z,20.33
2022-08-19T13:57:39.913Z,20.34
2022-08-19T14:00:12.116Z,20.36
2022-08-19T14:02:39.909Z,20.37
2022-08-19T14:05:08.074Z,20.35
2022-08-19T14:07:35.329Z,20.27
2022-08-19T14:10:02.537Z,20.27
2022-08-19T14:12:29.793Z,20.23
2022-08-19T14:14:56.876Z,20.19
2022-08-19T14:17:23.962Z,20.17
2022-08-19T14:19:50.998Z,20.10
2022-08-19T14:22:22.021Z,20.15
2022-08-19T14:24:51.146Z,20.11
2022-08-19T14:27:25.703Z,20.07
2022-08-19T14:29:53.516Z,20.01
2022-08-19T14:32:20.650Z,20.09
2022-08-19T14:34:48.018Z,20.10
2022-08-19T14:37:15.806Z,20.12
2022-08-19T14:39:43.041Z,20.14
2022-08-19T14:42:11.478Z,20.07
2022-08-19T14:44:38.847Z,20.04
2022-08-19T14:47:07.641Z,20.01
2022-08-19T14:49:43.126Z,20.01
2022-08-19T14:52:37.232Z,20.02
2022-08-19T14:58:29.058Z,19.93
2022-08-19T15:00:58.792Z,19.91
2022-08-19T15:03:26.883Z,19.86
2022-08-19T15:05:54.176Z,19.65
2022-08-19T15:08:22.000Z,19.45
2022-08-19T15:10:49.687Z,19.40
2022-08-19T15:13:16.852Z,19.39
2022-08-19T15:15:43.985Z,19.30
2022-08-19T15:18:13.997Z,19.30
2022-08-19T15:20:42.158Z,19.24
2022-08-19T15:23:10.099Z,19.23
2022-08-19T15:25:37.289Z,19.21
2022-08-19T15:28:04.520Z,19.14
2022-08-19T15:30:31.703Z,19.17
2022-08-19T15:33:00.831Z,19.14
2022-08-19T15:35:28.578Z,19.07
2022-08-19T15:37:56.698Z,19.01
2022-08-19T15:40:25.406Z,18.98
2022-08-19T15:42:53.128Z,18.99
2022-08-19T15:45:21.018Z,18.92
2022-08-19T15:47:48.724Z,18.97
2022-08-19T15:50:19.111Z,18.93
2022-08-19T15:52:55.340Z,18.92
2022-08-19T15:55:32.453Z,18.85
2022-08-19T15:58:28.238Z,18.84
2022-08-19T16:01:20.681Z,18.81
2022-08-19T16:04:14.017Z,18.81
2022-08-19T16:06:48.906Z,18.78
2022-08-19T16:09:16.985Z,18.76
2022-08-19T16:11:45.764Z,18.72
2022-08-19T16:14:17.900Z,18.67
2022-08-19T16:16:48.103Z,18.61
2022-08-19T16:19:16.253Z,18.59
2022-08-19T16:21:48.109Z,18.59
2022-08-19T16:24:16.742Z,18.58
2022-08-19T16:26:44.369Z,18.60
2022-08-19T16:29:13.043Z,18.59
2022-08-19T16:31:42.282Z,18.61
2022-08-19T16:34:10.143Z,18.62
2022-08-19T16:36:42.235Z,18.59
2022-08-19T16:39:11.149Z,18.53
2022-08-19T16:41:38.653Z,18.53
2022-08-19T16:44:07.805Z,18.53
2022-08-19T16:46:38.380Z,18.52
2022-08-19T16:49:05.706Z,18.50
2022-08-19T16:51:33.776Z,18.50
2022-08-19T16:54:01.738Z,18.48
2022-08-19T16:56:29.465Z,18.51
2022-08-19T16:58:59.644Z,18.41
2022-08-19T17:01:27.582Z,18.16
2022-08-19T17:03:55.155Z,18.13
2022-08-19T17:06:26.026Z,17.98
2022-08-19T17:08:54.890Z,17.83
2022-08-19T17:11:23.340Z,17.76
2022-08-19T17:13:50.935Z,17.81
2022-08-19T17:16:18.628Z,17.78
2022-08-19T17:18:45.789Z,17.83
2022-08-19T17:21:13.253Z,17.86
2022-08-19T17:23:42.710Z,17.84
2022-08-19T17:26:17.206Z,17.78
2022-08-19T17:28:47.993Z,17.71
2022-08-19T17:31:15.466Z,17.71
2022-08-19T17:33:42.551Z,17.71
2022-08-19T17:36:26.336Z,17.67
2022-08-19T17:38:58.070Z,17.61
2022-08-19T17:41:26.823Z,17.51
2022-08-19T17:43:54.564Z,17.38
2022-08-19T17:46:21.763Z,17.31
2022-08-19T17:48:52.681Z,17.27
2022-08-19T17:51:42.391Z,17.12
2022-08-19T17:54:10.804Z,17.12
2022-08-19T17:56:38.150Z,17.03
2022-08-19T17:59:06.244Z,17.01
2022-08-19T18:01:52.791Z,16.97
2022-08-19T18:04:23.208Z,16.95
2022-08-19T18:06:53.853Z,16.91
2022-08-19T18:09:28.673Z,16.92
2022-08-19T18:12:06.321Z,16.87
2022-08-19T18:14:34.743Z,16.89
2022-08-19T18:17:09.720Z,16.79
2022-08-19T18:19:42.144Z,16.79
2022-08-19T18:22:11.120Z,16.78
2022-08-19T18:24:39.262Z,16.79
2022-08-19T18:27:07.255Z,16.82
2022-08-19T18:29:38.276Z,16.80
2022-08-19T18:32:07.148Z,16.79
2022-08-19T18:34:36.173Z,16.77
2022-08-19T18:37:03.505Z,16.82
2022-08-19T18:39:49.112Z,16.83
2022-08-19T18:42:36.177Z,16.81
2022-08-19T18:45:28.269Z,16.80
2022-08-19T18:48:27.560Z,16.79
2022-08-19T18:50:56.997Z,16.77
2022-08-19T18:53:24.538Z,16.78
2022-08-19T18:55:53.870Z,16.78
2022-08-19T18:58:27.503Z,16.70
2022-08-19T19:00:56.836Z,16.61
2022-08-19T19:03:28.122Z,16.49
2022-08-19T19:05:55.177Z,16.48
2022-08-19T19:08:27.165Z,16.44
2022-08-19T19:10:55.884Z,16.42
2022-08-19T19:13:22.976Z,16.39
2022-08-19T19:15:50.070Z,16.34
2022-08-19T19:18:17.168Z,16.31
2022-08-19T19:20:47.011Z,16.31
2022-08-19T19:23:44.307Z,16.29
2022-08-19T19:26:12.495Z,16.33
2022-08-19T19:32:11.212Z,16.36
2022-08-19T19:34:38.777Z,16.35
2022-08-19T19:37:54.593Z,16.33
2022-08-19T19:40:22.306Z,16.31
2022-08-19T19:42:50.099Z,16.31
2022-08-19T19:45:18.511Z,16.30
2022-08-19T19:47:50.105Z,16.29
2022-08-19T19:50:18.005Z,16.25
2022-08-19T19:52:46.292Z,16.21
2022-08-19T19:55:17.779Z,16.23
2022-08-19T19:57:46.043Z,16.28
2022-08-19T20:00:16.235Z,16.24
2022-08-19T20:02:49.781Z,16.21
2022-08-19T20:06:14.542Z,16.20
2022-08-19T20:09:07.984Z,16.19
2022-08-19T20:11:36.621Z,16.14
2022-08-19T20:14:09.447Z,16.17
2022-08-19T20:16:38.274Z,16.18
2022-08-19T20:19:05.362Z,16.19
2022-08-19T20:21:32.609Z,16.17
2022-08-19T20:24:08.586Z,16.16
2022-08-19T20:26:37.254Z,16.14
2022-08-19T20:29:54.213Z,16.16
2022-08-19T20:32:21.593Z,16.11
2022-08-19T20:35:26.814Z,16.18
2022-08-19T20:37:58.086Z,16.21
2022-08-19T20:40:28.532Z,16.21
2022-08-19T20:42:57.513Z,16.20
2022-08-19T20:46:12.787Z,16.22
2022-08-19T20:51:32.189Z,16.19
2022-08-19T20:53:59.697Z,16.21
2022-08-19T20:56:27.562Z,16.17
2022-08-19T20:59:00.147Z,16.16
2022-08-19T21:01:27.370Z,16.19
2022-08-19T21:03:54.507Z,16.24
2022-08-19T21:06:22.120Z,16.23
2022-08-19T21:08:52.720Z,16.25
2022-08-19T21:11:20.623Z,16.26
2022-08-19T21:13:48.346Z,16.28
2022-08-19T21:16:15.418Z,16.28
2022-08-19T21:18:42.500Z,16.27
2022-08-19T21:21:09.551Z,16.25
2022-08-19T21:23:36.671Z,16.28
2022-08-19T21:26:03.731Z,16.25
2022-08-19T21:28:35.731Z,16.29
2022-08-19T21:31:10.486Z,16.29
2022-08-19T21:33:38.174Z,16.30
2022-08-19T21:36:06.387Z,16.25
2022-08-19T21:38:36.482Z,16.24
2022-08-19T21:41:06.104Z,16.25
2022-08-19T21:43:34.991Z,16.26
2022-08-19T21:46:02.178Z,16.26
2022-08-19T21:48:38.636Z,16.26
2022-08-19T21:51:06.276Z,16.21
2022-08-19T21:53:34.656Z,16.21
2022-08-19T21:56:06.472Z,16.21
2022-08-19T21:58:34.320Z,16.21
2022-08-19T22:01:05.562Z,16.23
2022-08-19T22:03:33.347Z,16.29
2022-08-19T22:06:03.075Z,16.28
2022-08-19T22:08:31.373Z,16.25
2022-08-19T22:11:01.699Z,16.25
2022-08-19T22:13:30.161Z,16.24
2022-08-19T22:15:57.252Z,16.22
2022-08-19T22:18:24.669Z,16.23
2022-08-19T22:20:51.736Z,16.27
2022-08-19T22:23:18.765Z,16.28
2022-08-19T22:25:46.656Z,16.30
2022-08-19T22:28:18.765Z,16.30
2022-08-19T22:30:47.166Z,16.33
2022-08-19T22:33:19.477Z,16.34
2022-08-19T22:39:29.202Z,16.38
2022-08-19T22:41:56.455Z,16.40
2022-08-19T22:44:24.058Z,16.42
2022-08-19T22:46:51.126Z,16.42
2022-08-19T22:49:18.181Z,16.42
2022-08-19T22:52:03.757Z,16.44
2022-08-19T22:57:20.866Z,16.45
2022-08-19T22:59:49.462Z,16.41
2022-08-19T23:02:24.500Z,16.41
2022-08-19T23:04:52.338Z,16.44
2022-08-19T23:07:23.848Z,16.42
2022-08-19T23:09:52.566Z,16.42
2022-08-19T23:12:32.016Z,16.41
2022-08-19T23:15:04.517Z,16.41
2022-08-19T23:17:31.590Z,16.43
2022-08-19T23:19:59.834Z,16.42
2022-08-19T23:22:27.262Z,16.42
2022-08-19T23:24:56.208Z,16.42
2022-08-19T23:27:41.780Z,16.44
2022-08-19T23:30:27.304Z,16.45
2022-08-19T23:32:55.808Z,16.45
2022-08-19T23:35:23.853Z,16.44
2022-08-19T23:37:51.990Z,16.46
2022-08-19T23:40:21.607Z,16.47
2022-08-19T23:42:58.329Z,16.49
2022-08-19T23:45:25.903Z,16.49
2022-08-19T23:47:56.996Z,16.50
2022-08-19T23:50:27.422Z,16.51
2022-08-19T23:53:03.185Z,16.51
2022-08-19T23:55:51.855Z,16.54
2022-08-19T23:58:20.081Z,16.53
